You are not logged in, Click here to log in
機場資訊:RJOA Welcome to Taiwan Airways 台灣虛擬航空
ICAO: RJOA Country: 日本廣島縣三原市
Latitude: 34.4399 Longitude: 132.919
Total Arrivals: 36 Total Departures: 27
Latest Arrival: FS05 (ZSSS-RJOA)CHU. CHUHAO Latest Departure: 3KCI11 (RJOA-RJFK)Jason. Li
Scenery:
METAR : RJOA 170400Z 14006KT 110V210 9999 FEW025 SCT030 BKN/// 17/08 Q1021

広島空港HIJ